Time;durP1;ratioP1;P1;durP2;ratioP2;P2;SDS_P1;SDS_P2;PMS_P1;PMS_P2;Temp;Humidity;BMP_temperature;BMP_pressure;BME280_temperature;BME280_humidity;BME280_pressure;Samples;Min_cycle;Max_cycle;Signal;HPM_P1;HPM_P2
2022/04/18 00:01:18;;;;;;;12.43;7.97;;;7.70;97.40;;;;;;5116246;28;20047;-78
2022/04/18 00:03:43;;;;;;;13.07;7.82;;;7.60;96.50;;;;;;5114710;28;20049;-79
2022/04/18 00:06:09;;;;;;;15.38;9.20;;;7.60;97.10;;;;;;5116389;28;20122;-78
2022/04/18 00:08:34;;;;;;;16.80;8.77;;;7.60;96.90;;;;;;5116525;28;20054;-78
2022/04/18 00:11:00;;;;;;;11.85;8.57;;;7.50;96.70;;;;;;5115966;28;20056;-79
2022/04/18 00:13:26;;;;;;;13.85;8.57;;;7.50;97.90;;;;;;5116271;28;20126;-79
2022/04/18 00:15:51;;;;;;;15.65;9.30;;;7.40;97.40;;;;;;5115590;28;20166;-77
2022/04/18 00:18:17;;;;;;;16.23;9.20;;;7.40;96.80;;;;;;5115948;28;20048;-78
2022/04/18 00:20:42;;;;;;;15.45;9.00;;;7.30;98.00;;;;;;5115882;28;20414;-79
2022/04/18 00:23:08;;;;;;;15.02;8.93;;;7.20;97.80;;;;;;5115859;28;20039;-78
2022/04/18 00:25:34;;;;;;;13.20;8.82;;;7.20;98.20;;;;;;5115778;28;20070;-79
2022/04/18 00:27:59;;;;;;;19.20;10.10;;;7.10;98.30;;;;;;5115777;28;20048;-77
2022/04/18 00:30:25;;;;;;;16.25;9.75;;;7.10;98.60;;;;;;5115684;28;20053;-77
2022/04/18 00:32:50;;;;;;;18.85;9.73;;;7.10;99.60;;;;;;5115600;28;20127;-77
2022/04/18 00:35:16;;;;;;;16.33;9.25;;;7.10;99.70;;;;;;5116002;28;20040;-78
2022/04/18 00:37:41;;;;;;;20.17;10.75;;;7.10;99.20;;;;;;5115551;28;20495;-77
2022/04/18 00:40:08;;;;;;;16.33;10.15;;;7.00;99.30;;;;;;5115547;28;20044;-78
2022/04/18 00:42:34;;;;;;;28.42;13.02;;;7.00;98.90;;;;;;5115637;28;20079;-77
2022/04/18 00:45:00;;;;;;;17.98;10.55;;;7.00;99.20;;;;;;5115512;28;20075;-78
2022/04/18 00:47:26;;;;;;;18.77;10.83;;;7.00;99.10;;;;;;5116840;28;20127;-78
2022/04/18 00:49:51;;;;;;;17.40;9.07;;;6.90;99.40;;;;;;5118602;28;20082;-79
2022/04/18 00:52:18;;;;;;;17.95;9.30;;;6.90;99.70;;;;;;5118887;28;20051;-77
2022/04/18 00:54:44;;;;;;;18.95;9.85;;;6.90;99.30;;;;;;5117074;28;20039;-77
2022/04/18 00:57:10;;;;;;;17.00;10.10;;;6.90;99.50;;;;;;5118806;28;20047;-77
2022/04/18 00:59:37;;;;;;;17.80;9.82;;;6.80;99.90;;;;;;5121580;28;20052;-77
2022/04/18 01:02:04;;;;;;;16.40;9.63;;;6.80;99.80;;;;;;5122648;28;20047;-77
2022/04/18 01:04:30;;;;;;;;;;;6.80;99.80;;;;;;5122071;28;20079;-77
2022/04/18 01:06:56;;;;;;;17.65;9.23;;;6.80;99.90;;;;;;5121712;28;19931;-75
2022/04/18 01:09:22;;;;;;;18.05;9.77;;;6.70;99.90;;;;;;5122310;28;20047;-76
2022/04/18 01:11:49;;;;;;;17.15;10.00;;;6.70;99.90;;;;;;5116438;28;20056;-77
2022/04/18 01:14:15;;;;;;;17.05;9.40;;;6.70;99.90;;;;;;5116667;27;20079;-77
2022/04/18 01:16:41;;;;;;;15.98;9.70;;;6.60;99.90;;;;;;5114328;28;20075;-78
2022/04/18 01:19:07;;;;;;;19.60;9.80;;;6.60;99.90;;;;;;5116724;28;20040;-77
2022/04/18 01:21:32;;;;;;;15.35;8.45;;;6.60;99.90;;;;;;5115986;28;20040;-78
2022/04/18 01:23:59;;;;;;;18.05;9.55;;;6.60;99.90;;;;;;5116355;28;20046;-77
2022/04/18 01:29:08;;;;;;;14.88;8.95;;;6.60;99.90;;;;;;5115303;28;20471;-77
2022/04/18 01:31:36;;;;;;;15.63;9.32;;;6.60;99.90;;;;;;5115238;28;20039;-78
2022/04/18 01:34:04;;;;;;;16.02;9.05;;;6.60;99.90;;;;;;5115065;28;20052;-77
2022/04/18 01:36:29;;;;;;;16.88;9.43;;;6.60;99.90;;;;;;5115136;28;20040;-78
2022/04/18 01:38:55;;;;;;;17.33;9.40;;;6.60;99.90;;;;;;5115433;28;20112;-78
2022/04/18 01:41:21;;;;;;;18.45;9.77;;;6.60;99.90;;;;;;5114884;28;20364;-78
2022/04/18 01:43:47;;;;;;;18.00;9.30;;;6.50;99.90;;;;;;5114631;28;20058;-78
2022/04/18 01:46:17;;;;;;;16.00;9.30;;;6.50;99.90;;;;;;5114634;28;20039;-77
2022/04/18 01:48:43;;;;;;;16.63;9.18;;;6.50;99.90;;;;;;5114850;28;20130;-78
2022/04/18 01:51:09;;;;;;;14.35;8.65;;;6.40;99.90;;;;;;5114392;28;20078;-77
2022/04/18 01:53:35;;;;;;;16.75;9.00;;;6.30;99.90;;;;;;5114449;28;20089;-78
2022/04/18 01:56:00;;;;;;;16.25;9.40;;;6.30;99.90;;;;;;5114360;28;20357;-78
2022/04/18 01:58:27;;;;;;;15.05;8.20;;;6.20;99.90;;;;;;5114266;28;20044;-76
2022/04/18 02:00:52;;;;;;;16.13;9.25;;;6.50;99.90;;;;;;5114229;28;20394;-77
2022/04/18 02:03:18;;;;;;;18.02;9.70;;;6.30;99.90;;;;;;5114363;28;20040;-77
2022/04/18 02:05:44;;;;;;;16.38;9.07;;;6.20;99.90;;;;;;5114683;28;20426;-77
2022/04/18 02:08:11;;;;;;;24.63;9.57;;;6.20;99.90;;;;;;5114214;28;20083;-77
2022/04/18 02:10:37;;;;;;;17.92;9.15;;;6.20;99.90;;;;;;5113947;28;20105;-76
2022/04/18 02:13:03;;;;;;;17.38;8.55;;;6.10;99.90;;;;;;5114227;28;20445;-77
2022/04/18 02:15:28;;;;;;;16.52;9.52;;;6.10;99.90;;;;;;5114891;28;20387;-78
2022/04/18 02:17:54;;;;;;;16.45;8.30;;;6.00;99.90;;;;;;5114472;28;20123;-78
2022/04/18 02:20:20;;;;;;;17.98;9.02;;;6.00;99.90;;;;;;5113183;28;20495;-78
2022/04/18 02:22:46;;;;;;;14.60;8.25;;;5.90;99.90;;;;;;5114303;28;20442;-77
2022/04/18 02:25:12;;;;;;;20.25;9.23;;;5.90;99.90;;;;;;5113368;28;20088;-77
2022/04/18 02:27:37;;;;;;;17.05;8.55;;;5.90;99.90;;;;;;5115821;28;20039;-79
2022/04/18 02:30:07;;;;;;;13.73;8.07;;;5.80;99.90;;;;;;5118674;28;20514;-79
2022/04/18 02:32:48;;;;;;;16.58;9.55;;;5.80;99.90;;;;;;5117335;28;20059;-79
2022/04/18 02:35:21;;;;;;;16.80;9.30;;;5.70;99.90;;;;;;5117757;28;20044;-79
2022/04/18 02:37:48;;;;;;;19.05;9.70;;;5.70;99.90;;;;;;5118033;28;20043;-79
2022/04/18 02:40:14;;;;;;;20.03;9.10;;;5.70;99.90;;;;;;5117605;28;20130;-76
2022/04/18 02:42:42;;;;;;;18.77;10.07;;;5.60;99.90;;;;;;5118194;28;20466;-78
2022/04/18 02:45:09;;;;;;;18.00;9.63;;;5.50;99.90;;;;;;5118043;28;20161;-77
2022/04/18 02:47:34;;;;;;;;;;;5.50;99.90;;;;;;5118254;27;20070;-77
2022/04/18 02:50:00;;;;;;;13.82;8.80;;;5.50;99.90;;;;;;5117833;28;19919;-78
2022/04/18 02:52:25;;;;;;;18.67;9.38;;;5.40;99.90;;;;;;5117744;28;20043;-78
2022/04/18 02:54:51;;;;;;;17.10;9.48;;;5.40;99.90;;;;;;5117625;28;20047;-78
2022/04/18 02:57:16;;;;;;;15.00;8.52;;;5.40;99.90;;;;;;5117590;28;20042;-78
2022/04/18 02:59:42;;;;;;;18.20;9.25;;;5.30;99.90;;;;;;5117624;28;20387;-79
2022/04/18 03:02:08;;;;;;;13.98;8.85;;;5.30;99.90;;;;;;5116424;28;20043;-78
2022/04/18 03:04:33;;;;;;;18.08;9.90;;;5.30;99.90;;;;;;5117630;28;20044;-79
2022/04/18 03:07:00;;;;;;;14.65;8.60;;;5.30;99.90;;;;;;5117410;28;20040;-78
2022/04/18 03:09:26;;;;;;;15.77;9.07;;;5.30;99.90;;;;;;5117417;28;20059;-79
2022/04/18 03:11:52;;;;;;;14.20;8.55;;;5.30;99.90;;;;;;5117193;28;20047;-78
2022/04/18 03:14:17;;;;;;;17.92;10.05;;;5.20;99.90;;;;;;5117359;28;20047;-79
2022/04/18 03:16:43;;;;;;;15.85;10.05;;;5.20;99.90;;;;;;5117146;28;20388;-77
2022/04/18 03:19:08;;;;;;;11.93;8.13;;;5.20;99.90;;;;;;5117356;28;20046;-78
2022/04/18 03:21:34;;;;;;;14.23;8.23;;;5.20;99.90;;;;;;5117311;28;20062;-79
2022/04/18 03:23:59;;;;;;;14.60;8.43;;;5.10;99.90;;;;;;5117184;28;20073;-78
2022/04/18 03:26:25;;;;;;;13.98;8.60;;;5.10;99.90;;;;;;5117537;28;20083;-78
2022/04/18 03:28:50;;;;;;;18.88;8.95;;;5.10;99.90;;;;;;5115806;28;20355;-78
2022/04/18 03:31:16;;;;;;;11.85;8.15;;;5.10;99.90;;;;;;5117281;28;20386;-77
2022/04/18 03:33:42;;;;;;;13.73;8.52;;;5.10;99.90;;;;;;5117015;28;20043;-77
2022/04/18 03:41:35;;;;;;;15.60;8.70;;;5.00;99.90;;;;;;5116884;28;20055;-77
2022/04/18 03:44:01;;;;;;;15.00;9.40;;;5.00;99.90;;;;;;5116913;28;20564;-77
2022/04/18 03:46:26;;;;;;;16.05;8.98;;;5.00;99.90;;;;;;5116789;28;20035;-78
2022/04/18 03:48:53;;;;;;;17.40;9.00;;;4.90;99.90;;;;;;5116672;28;20130;-78
2022/04/18 03:51:18;;;;;;;18.45;8.98;;;4.90;99.90;;;;;;5116648;28;20087;-78
2022/04/18 03:53:44;;;;;;;17.08;9.50;;;4.90;99.90;;;;;;5116548;28;20490;-78
2022/04/18 03:56:09;;;;;;;16.25;9.32;;;4.90;99.90;;;;;;5116854;28;20115;-78
2022/04/18 03:58:35;;;;;;;15.70;8.45;;;4.80;99.90;;;;;;5116496;28;20047;-78
2022/04/18 04:01:00;;;;;;;13.82;7.90;;;4.80;99.90;;;;;;5116506;28;20394;-78
2022/04/18 04:03:26;;;;;;;18.80;8.98;;;4.70;99.90;;;;;;5116422;28;20455;-78
2022/04/18 04:05:53;;;;;;;16.02;8.23;;;4.70;99.90;;;;;;5116309;28;20519;-78
2022/04/18 04:08:22;;;;;;;13.60;7.72;;;4.70;99.90;;;;;;5116745;28;20097;-78
2022/04/18 04:10:49;;;;;;;14.43;8.82;;;4.80;99.90;;;;;;5116083;28;20044;-77
2022/04/18 04:13:15;;;;;;;16.35;8.48;;;4.70;99.90;;;;;;5116815;28;20460;-77
2022/04/18 04:15:40;;;;;;;17.30;9.05;;;4.60;99.90;;;;;;5116113;28;20078;-78
2022/04/18 04:18:06;;;;;;;16.58;9.25;;;4.60;99.90;;;;;;5116253;28;20051;-77
2022/04/18 04:20:31;;;;;;;17.63;9.70;;;4.60;99.90;;;;;;5116131;28;20035;-76
2022/04/18 04:22:57;;;;;;;22.00;10.05;;;4.60;99.90;;;;;;5115961;28;20048;-78
2022/04/18 04:25:22;;;;;;;19.85;10.10;;;4.50;99.90;;;;;;5116437;28;20047;-77
2022/04/18 04:27:48;;;;;;;18.95;10.80;;;4.50;99.90;;;;;;5115825;28;20040;-78
2022/04/18 04:30:14;;;;;;;18.80;10.80;;;4.50;99.90;;;;;;5115896;28;20166;-79
2022/04/18 04:32:39;;;;;;;22.75;11.25;;;5.40;99.90;;;;;;5116056;28;20044;-76
2022/04/18 04:35:05;;;;;;;20.70;11.45;;;4.50;99.90;;;;;;5115700;28;20046;-77
2022/04/18 04:37:31;;;;;;;21.52;11.55;;;4.50;99.90;;;;;;5114402;28;20083;-77
2022/04/18 04:39:56;;;;;;;22.15;11.95;;;4.50;99.90;;;;;;5115722;28;20112;-78
2022/04/18 04:42:22;;;;;;;24.13;11.40;;;4.40;99.90;;;;;;5116084;28;20081;-78
2022/04/18 04:44:47;;;;;;;19.52;11.50;;;4.40;99.90;;;;;;5115625;28;20039;-78
2022/04/18 04:47:13;;;;;;;28.90;13.45;;;4.40;99.90;;;;;;5115462;28;20043;-77
2022/04/18 04:49:38;;;;;;;24.58;11.85;;;4.40;99.90;;;;;;5114454;28;20047;-77
2022/04/18 04:52:05;;;;;;;27.40;11.55;;;4.40;99.90;;;;;;5115087;28;20100;-78
2022/04/18 04:54:31;;;;;;;23.67;12.15;;;4.40;99.90;;;;;;5115446;28;20047;-79
2022/04/18 04:56:57;;;;;;;24.13;11.90;;;4.40;99.90;;;;;;5115637;28;20047;-77
2022/04/18 04:59:22;;;;;;;27.42;12.48;;;4.40;99.90;;;;;;5115285;28;20395;-77
2022/04/18 05:01:48;;;;;;;22.02;12.52;;;4.40;99.90;;;;;;5115276;28;20079;-77
2022/04/18 05:04:13;;;;;;;31.25;13.85;;;4.40;99.90;;;;;;5115131;28;20043;-78
2022/04/18 05:06:40;;;;;;;37.92;15.20;;;4.40;99.90;;;;;;5115080;28;20391;-77
2022/04/18 05:09:06;;;;;;;27.55;14.32;;;4.50;99.90;;;;;;5115105;28;20059;-77
2022/04/18 05:11:33;;;;;;;37.03;16.15;;;4.50;99.90;;;;;;5113831;28;20063;-77
2022/04/18 05:13:58;;;;;;;44.53;16.27;;;4.60;99.90;;;;;;5114948;28;20044;-77
2022/04/18 05:16:24;;;;;;;39.00;16.55;;;4.60;99.90;;;;;;5115130;28;20172;-76
2022/04/18 05:18:50;;;;;;;43.28;17.92;;;4.60;99.90;;;;;;5114646;28;20039;-78
2022/04/18 05:21:16;;;;;;;45.60;18.25;;;4.70;99.90;;;;;;5114737;28;20043;-78
2022/04/18 05:23:41;;;;;;;45.55;19.63;;;4.70;99.90;;;;;;5115191;28;20434;-77
2022/04/18 05:26:07;;;;;;;46.60;20.05;;;4.70;99.90;;;;;;5114837;27;20130;-77
2022/04/18 05:28:33;;;;;;;47.87;19.67;;;4.80;99.90;;;;;;5113853;28;20485;-76
2022/04/18 05:30:59;;;;;;;44.63;19.50;;;4.90;99.90;;;;;;5114368;28;20048;-77
2022/04/18 05:33:24;;;;;;;46.67;19.50;;;5.00;99.90;;;;;;5114732;28;20039;-77
2022/04/18 05:35:50;;;;;;;37.78;18.48;;;5.00;99.90;;;;;;5114553;28;20036;-77
2022/04/18 05:38:16;;;;;;;43.17;17.95;;;5.10;99.90;;;;;;5113410;28;20495;-76
2022/04/18 05:40:42;;;;;;;34.57;16.50;;;5.20;99.90;;;;;;5114901;28;20050;-77
2022/04/18 05:43:11;;;;;;;42.65;15.80;;;5.30;99.90;;;;;;5114452;28;20277;-78
2022/04/18 05:45:38;;;;;;;26.70;12.10;;;5.40;99.90;;;;;;5114481;28;20436;-77
2022/04/18 05:48:04;;;;;;;26.55;10.77;;;5.50;99.90;;;;;;5114449;28;20075;-76
2022/04/18 05:50:29;;;;;;;24.25;10.75;;;5.60;99.90;;;;;;5114319;28;20051;-77
2022/04/18 05:52:55;;;;;;;25.10;10.77;;;5.70;99.90;;;;;;5114387;28;20047;-77
2022/04/18 05:55:21;;;;;;;35.85;13.90;;;5.80;99.90;;;;;;5114624;28;20036;-78
2022/04/18 05:57:48;;;;;;;33.35;14.82;;;5.90;99.90;;;;;;5114348;28;20485;-77
2022/04/18 06:00:14;;;;;;;;;;;6.00;99.90;;;;;;5114634;28;20035;-78
2022/04/18 06:02:40;;;;;;;38.63;13.88;;;6.00;99.90;;;;;;5113532;28;19926;-78
2022/04/18 06:05:06;;;;;;;30.50;12.95;;;6.20;99.90;;;;;;5114236;28;20036;-77
2022/04/18 06:07:32;;;;;;;30.92;13.57;;;6.30;99.90;;;;;;5114250;28;20399;-77
2022/04/18 06:09:58;;;;;;;27.27;11.23;;;6.40;99.90;;;;;;5114391;28;20538;-77
2022/04/18 06:12:24;;;;;;;27.90;10.57;;;6.50;99.90;;;;;;5112967;28;20052;-78
2022/04/18 06:14:50;;;;;;;27.63;12.75;;;6.60;99.90;;;;;;5113742;28;20626;-78
2022/04/18 06:17:15;;;;;;;18.77;9.77;;;6.70;99.90;;;;;;5114085;28;20047;-77
2022/04/18 06:19:41;;;;;;;24.33;10.43;;;6.80;99.90;;;;;;5114182;28;20039;-78
2022/04/18 06:22:06;;;;;;;21.10;10.32;;;7.00;99.90;;;;;;5113780;28;20472;-77
2022/04/18 06:24:32;;;;;;;22.40;10.40;;;7.10;99.90;;;;;;5114184;28;20040;-77
2022/04/18 06:26:57;;;;;;;14.98;8.00;;;7.30;99.90;;;;;;5114061;28;20467;-78
2022/04/18 06:29:23;;;;;;;14.93;7.57;;;7.40;99.90;;;;;;5114067;28;20372;-77
2022/04/18 06:31:49;;;;;;;10.73;6.95;;;7.60;99.90;;;;;;5113076;28;20065;-78
2022/04/18 06:34:16;;;;;;;8.50;6.00;;;7.80;99.90;;;;;;5113898;28;20051;-78
2022/04/18 06:36:42;;;;;;;14.55;7.90;;;7.90;99.90;;;;;;5113864;28;20122;-77
2022/04/18 06:39:07;;;;;;;9.82;6.72;;;8.10;99.90;;;;;;5113878;28;20124;-77
2022/04/18 06:41:33;;;;;;;11.48;6.38;;;8.30;99.90;;;;;;5114230;28;20047;-77
2022/04/18 06:43:59;;;;;;;12.50;7.00;;;8.40;99.90;;;;;;5112681;28;20506;-79
2022/04/18 06:46:24;;;;;;;10.98;7.10;;;8.60;99.90;;;;;;5113851;28;20054;-78
2022/04/18 06:48:50;;;;;;;11.52;6.53;;;8.80;99.90;;;;;;5113843;28;20045;-77
2022/04/18 06:51:15;;;;;;;11.90;7.07;;;8.90;99.90;;;;;;5113648;28;20476;-78
2022/04/18 06:53:41;;;;;;;11.05;6.93;;;9.10;99.90;;;;;;5113711;28;20054;-78
2022/04/18 06:58:50;;;;;;;10.02;5.85;;;9.40;99.90;;;;;;5113898;28;20043;-77
2022/04/18 07:01:16;;;;;;;13.20;6.15;;;9.50;99.90;;;;;;5112736;28;20050;-78
2022/04/18 07:03:42;;;;;;;12.95;6.68;;;9.70;99.90;;;;;;5112278;28;20395;-78
2022/04/18 07:06:07;;;;;;;12.70;6.40;;;9.80;99.90;;;;;;5113610;28;20043;-80
2022/04/18 07:08:33;;;;;;;9.93;6.13;;;9.90;99.50;;;;;;5113091;28;20281;-79
2022/04/18 07:10:59;;;;;;;11.98;7.00;;;10.00;99.90;;;;;;5113384;28;20048;-79
2022/04/18 07:13:25;;;;;;;8.68;5.70;;;10.10;99.90;;;;;;5114713;28;20047;-79
2022/04/18 07:15:52;;;;;;;10.30;7.05;;;10.20;99.50;;;;;;5117216;28;20043;-79
2022/04/18 07:18:18;;;;;;;11.95;6.75;;;10.40;99.60;;;;;;5117222;28;20051;-79
2022/04/18 07:20:43;;;;;;;9.85;6.53;;;10.50;99.00;;;;;;5117033;28;20040;-79
2022/04/18 07:23:09;;;;;;;11.70;6.75;;;10.60;97.10;;;;;;5117369;28;20036;-78
2022/04/18 07:25:34;;;;;;;11.63;6.35;;;10.70;98.50;;;;;;5117173;28;20051;-79
2022/04/18 07:28:00;;;;;;;12.48;6.15;;;10.90;97.50;;;;;;5116873;28;20536;-79
2022/04/18 07:30:30;;;;;;;13.60;6.13;;;10.90;96.10;;;;;;5117201;28;20044;-77
2022/04/18 07:32:55;;;;;;;12.23;6.45;;;11.00;96.60;;;;;;5116863;28;20487;-79
2022/04/18 07:35:21;;;;;;;9.68;6.00;;;11.10;96.80;;;;;;5115705;28;20124;-78
2022/04/18 07:40:30;;;;;;;11.38;6.10;;;11.30;97.50;;;;;;5117107;28;20051;-77
2022/04/18 07:42:56;;;;;;;8.65;5.70;;;11.50;97.30;;;;;;5116848;28;20051;-80
2022/04/18 07:45:22;;;;;;;11.80;5.80;;;11.60;95.60;;;;;;5116684;28;20035;-78
2022/04/18 07:47:50;;;;;;;9.05;5.68;;;11.70;95.70;;;;;;5116952;28;20044;-79
2022/04/18 07:50:15;;;;;;;7.88;4.97;;;11.80;96.00;;;;;;5115608;28;20091;-78
2022/04/18 07:52:41;;;;;;;9.48;5.72;;;11.90;95.40;;;;;;5115399;28;20083;-77
2022/04/18 07:55:07;;;;;;;10.63;6.43;;;11.90;94.40;;;;;;5116409;28;20117;-77
2022/04/18 07:57:32;;;;;;;10.45;5.70;;;12.00;94.70;;;;;;5116384;28;20069;-77
2022/04/18 07:59:58;;;;;;;9.20;5.47;;;12.20;94.30;;;;;;5116249;28;20044;-78
2022/04/18 08:02:24;;;;;;;8.45;5.05;;;12.30;94.30;;;;;;5116372;28;20051;-79
2022/04/18 08:04:50;;;;;;;8.80;5.50;;;12.40;93.70;;;;;;5116312;28;20142;-78
2022/04/18 08:07:15;;;;;;;8.30;5.55;;;12.50;92.40;;;;;;5116243;28;20561;-76
2022/04/18 08:09:41;;;;;;;9.07;5.90;;;12.60;93.30;;;;;;5116687;28;20095;-79
2022/04/18 08:12:11;;;;;;;15.88;5.65;;;12.70;93.40;;;;;;5114553;28;20055;-78
2022/04/18 08:14:37;;;;;;;9.93;5.70;;;12.70;92.40;;;;;;5115105;28;20051;-77
2022/04/18 08:17:03;;;;;;;10.23;5.95;;;12.70;92.40;;;;;;5114783;28;20054;-77
2022/04/18 08:19:29;;;;;;;7.60;4.43;;;12.90;92.70;;;;;;5116353;28;20050;-77
2022/04/18 08:21:55;;;;;;;8.40;5.30;;;12.90;92.40;;;;;;5115972;28;20130;-77
2022/04/18 08:24:21;;;;;;;8.00;5.25;;;13.10;92.90;;;;;;5115364;28;20043;-78
2022/04/18 08:26:47;;;;;;;10.13;5.15;;;13.30;91.50;;;;;;5115499;28;20039;-79
2022/04/18 08:29:13;;;;;;;7.85;4.75;;;13.40;90.90;;;;;;5115884;28;20044;-78
2022/04/18 08:31:38;;;;;;;10.07;5.15;;;13.60;91.00;;;;;;5115400;28;20040;-77
2022/04/18 08:34:04;;;;;;;8.90;4.60;;;13.70;90.90;;;;;;5116145;28;20360;-77
2022/04/18 08:36:30;;;;;;;8.95;5.18;;;13.80;90.90;;;;;;5115535;28;20108;-79
2022/04/18 08:38:55;;;;;;;10.00;4.85;;;13.90;90.70;;;;;;5115782;28;20055;-78
2022/04/18 08:41:24;;;;;;;8.40;4.93;;;14.00;90.50;;;;;;5114590;28;20047;-79
2022/04/18 08:43:51;;;;;;;6.30;4.47;;;14.10;87.80;;;;;;5115442;28;20068;-78
2022/04/18 08:46:17;;;;;;;7.13;4.75;;;14.20;87.70;;;;;;5114064;28;20051;-77
2022/04/18 08:54:15;;;;;;;6.72;4.20;;;14.20;86.00;;;;;;5114943;28;20479;-78
2022/04/18 08:56:41;;;;;;;13.35;4.70;;;14.30;84.50;;;;;;5114927;28;20040;-77
2022/04/18 08:59:07;;;;;;;7.75;4.90;;;14.30;83.50;;;;;;5115179;28;20040;-78
2022/04/18 09:01:33;;;;;;;7.68;4.63;;;14.50;85.80;;;;;;5115196;28;20172;-79
2022/04/18 09:03:59;;;;;;;7.90;4.13;;;14.50;85.80;;;;;;5115042;28;20044;-79
2022/04/18 09:06:25;;;;;;;6.40;4.47;;;14.70;83.30;;;;;;5115296;28;20043;-79
2022/04/18 09:08:56;;;;;;;9.20;4.80;;;14.70;83.80;;;;;;5113882;28;20479;-79
2022/04/18 09:11:32;;;;;;;7.95;4.75;;;14.80;84.30;;;;;;5114842;28;20056;-78
2022/04/18 09:14:12;;;;;;;8.43;4.78;;;14.90;83.20;;;;;;5114875;28;20079;-79
2022/04/18 09:16:40;;;;;;;8.80;5.05;;;15.10;85.40;;;;;;5115088;28;20035;-79
2022/04/18 09:19:11;;;;;;;11.43;5.57;;;15.20;86.10;;;;;;5114846;28;20050;-78
2022/04/18 09:22:03;;;;;;;7.47;4.78;;;15.30;83.30;;;;;;5114758;28;20040;-78
2022/04/18 09:24:33;;;;;;;6.65;4.30;;;15.30;83.80;;;;;;5113113;28;20055;-78
2022/04/18 09:27:13;;;;;;;7.90;4.68;;;15.40;83.90;;;;;;5114702;28;20047;-78
2022/04/18 09:29:40;;;;;;;11.65;4.80;;;15.60;85.30;;;;;;5113653;28;20043;-78
2022/04/18 09:32:13;;;;;;;7.18;4.20;;;15.70;84.20;;;;;;5114571;28;20043;-79
2022/04/18 09:34:42;;;;;;;7.00;4.05;;;15.80;81.10;;;;;;5114616;28;20043;-80
2022/04/18 09:37:17;;;;;;;7.53;4.15;;;15.90;83.10;;;;;;5114126;28;20391;-80
2022/04/18 09:39:50;;;;;;;5.90;4.00;;;16.10;83.90;;;;;;5113703;28;20048;-77
2022/04/18 09:42:15;;;;;;;6.68;4.20;;;16.20;81.30;;;;;;5114474;28;20048;-77
2022/04/18 09:44:41;;;;;;;6.40;4.40;;;16.30;82.20;;;;;;5114036;28;20061;-78
2022/04/18 09:47:07;;;;;;;9.45;5.25;;;16.30;80.20;;;;;;5114513;28;20075;-80
2022/04/18 09:49:39;;;;;;;6.50;3.93;;;16.20;80.10;;;;;;5114629;28;20043;-80
2022/04/18 09:52:08;;;;;;;7.05;3.85;;;16.30;80.50;;;;;;5105090;28;20408;-79
2022/04/18 09:54:33;;;;;;;7.90;4.25;;;16.20;78.70;;;;;;5111411;28;20035;-78
2022/04/18 09:57:06;;;;;;;7.83;4.47;;;16.30;81.50;;;;;;5112651;28;20080;-79
2022/04/18 09:59:32;;;;;;;7.75;4.78;;;16.40;79.90;;;;;;5114322;28;20108;-78
2022/04/18 10:01:58;;;;;;;7.33;4.50;;;16.40;81.20;;;;;;5114220;28;20043;-78
2022/04/18 10:04:24;;;;;;;6.15;3.97;;;16.50;80.00;;;;;;5113712;28;20454;-79
2022/04/18 10:06:52;;;;;;;6.47;4.22;;;16.70;80.40;;;;;;5114161;28;20119;-79
2022/04/18 10:09:19;;;;;;;7.75;4.38;;;16.80;79.60;;;;;;5114174;28;20487;-79
2022/04/18 10:11:44;;;;;;;;;;;16.80;80.30;;;;;;5114576;28;20058;-80
2022/04/18 10:14:10;;;;;;;7.45;4.47;;;16.70;78.70;;;;;;5113766;28;19919;-80
2022/04/18 10:16:38;;;;;;;6.93;4.20;;;16.90;79.40;;;;;;5113100;28;20096;-79
2022/04/18 10:19:22;;;;;;;6.95;4.10;;;17.00;79.20;;;;;;5114036;28;20044;-78
2022/04/18 10:21:58;;;;;;;5.30;3.65;;;17.20;78.60;;;;;;5113915;28;20403;-79
2022/04/18 10:25:06;;;;;;;6.13;4.05;;;17.30;78.30;;;;;;5113552;28;20058;-80
2022/04/18 10:27:57;;;;;;;7.28;4.18;;;17.50;78.20;;;;;;5114055;28;20054;-77
2022/04/18 10:30:23;;;;;;;6.22;3.50;;;17.60;75.50;;;;;;5114062;28;20130;-78
2022/04/18 10:32:49;;;;;;;5.90;3.85;;;17.60;75.50;;;;;;5113957;28;20043;-78
2022/04/18 10:35:15;;;;;;;6.57;3.45;;;17.70;76.70;;;;;;5113681;28;20094;-78
2022/04/18 10:37:43;;;;;;;6.00;4.03;;;17.90;76.90;;;;;;5130023;28;20087;-77
2022/04/18 10:40:09;;;;;;;7.47;3.67;;;17.90;74.70;;;;;;5113821;28;20048;-78
2022/04/18 10:42:37;;;;;;;6.68;3.78;;;17.80;72.00;;;;;;5113839;28;20090;-80
2022/04/18 10:45:24;;;;;;;6.35;3.72;;;17.90;74.70;;;;;;5113880;28;20046;-77
2022/04/18 10:47:59;;;;;;;7.65;3.40;;;18.00;71.30;;;;;;5114596;28;20047;-77
2022/04/18 10:50:27;;;;;;;8.35;3.90;;;18.10;70.80;;;;;;5117930;28;20059;-78
2022/04/18 10:53:13;;;;;;;6.25;3.88;;;18.00;70.90;;;;;;5117736;28;20114;-77
2022/04/18 10:55:59;;;;;;;6.47;3.60;;;18.00;72.00;;;;;;5117531;28;20373;-77
2022/04/18 10:58:27;;;;;;;5.20;3.55;;;18.10;69.60;;;;;;5117249;28;20047;-78
2022/04/18 11:00:57;;;;;;;5.47;3.67;;;18.00;69.10;;;;;;5117484;27;20467;-79
2022/04/18 11:03:35;;;;;;;4.38;3.17;;;18.20;71.00;;;;;;5117639;28;20086;-79
2022/04/18 11:06:01;;;;;;;6.43;3.03;;;18.40;69.20;;;;;;5116541;28;20070;-80
2022/04/18 11:08:29;;;;;;;6.78;3.72;;;18.50;69.20;;;;;;5117397;28;20036;-79
2022/04/18 11:11:03;;;;;;;5.90;3.20;;;18.70;68.90;;;;;;5117157;28;20063;-78
2022/04/18 11:13:32;;;;;;;4.97;3.30;;;18.80;67.90;;;;;;5116557;28;20066;-77
2022/04/18 11:16:26;;;;;;;5.15;3.28;;;18.70;67.50;;;;;;5116167;28;20046;-79
2022/04/18 11:19:13;;;;;;;6.78;3.10;;;18.90;68.40;;;;;;5088936;28;20052;-77
2022/04/18 11:21:58;;;;;;;4.43;3.03;;;19.00;66.30;;;;;;5116692;28;20048;-77
2022/04/18 11:24:51;;;;;;;5.38;3.10;;;19.00;64.90;;;;;;5116338;28;20048;-77
2022/04/18 11:27:29;;;;;;;4.80;3.17;;;19.10;66.90;;;;;;5116816;28;20072;-77
2022/04/18 11:30:00;;;;;;;6.85;3.42;;;19.20;67.70;;;;;;5117386;27;20189;-78
2022/04/18 11:32:28;;;;;;;6.15;3.20;;;19.40;66.20;;;;;;5116936;28;20089;-79
2022/04/18 11:34:56;;;;;;;4.80;3.40;;;19.50;65.40;;;;;;5116805;27;20406;-77
2022/04/18 11:37:36;;;;;;;4.65;3.28;;;19.40;63.20;;;;;;5116815;28;20043;-77
2022/04/18 11:40:08;;;;;;;6.28;3.78;;;19.30;66.40;;;;;;5116773;28;20036;-76
2022/04/18 11:42:34;;;;;;;6.25;3.55;;;19.30;66.50;;;;;;5117275;28;20055;-79
2022/04/18 11:45:03;;;;;;;5.38;3.42;;;19.20;66.10;;;;;;5116690;28;20570;-77
2022/04/18 11:47:41;;;;;;;5.28;3.42;;;19.50;67.30;;;;;;5116557;28;20096;-77
2022/04/18 11:50:07;;;;;;;5.00;3.42;;;19.60;64.40;;;;;;5116597;27;20054;-79
2022/04/18 11:52:34;;;;;;;;;;;19.20;62.30;;;;;;5117377;28;20047;-76
2022/04/18 11:55:06;;;;;;;7.25;3.60;;;19.10;64.00;;;;;;5116509;28;19966;-78
2022/04/18 11:57:34;;;;;;;4.50;3.08;;;19.20;65.80;;;;;;5115519;28;20044;-78
2022/04/18 12:00:00;;;;;;;7.07;3.97;;;19.30;62.70;;;;;;5116256;28;20392;-78
2022/04/18 12:08:03;;;;;;;5.38;3.70;;;19.50;61.90;;;;;;5116636;28;20134;-77
2022/04/18 12:10:31;;;;;;;5.68;3.13;;;19.50;64.30;;;;;;5116332;28;20047;-78
2022/04/18 12:12:59;;;;;;;6.38;3.42;;;19.70;65.40;;;;;;5116164;28;20135;-79
2022/04/18 12:15:27;;;;;;;5.18;2.88;;;19.60;64.80;;;;;;5115700;28;20131;-80
2022/04/18 12:17:54;;;;;;;5.13;3.10;;;19.60;62.30;;;;;;5116050;28;20044;-79
2022/04/18 12:20:27;;;;;;;5.85;3.30;;;19.60;62.30;;;;;;5115980;27;20054;-77
2022/04/18 12:22:58;;;;;;;5.43;3.65;;;19.70;61.20;;;;;;5114962;28;20035;-80
2022/04/18 12:25:30;;;;;;;4.88;3.40;;;19.80;61.30;;;;;;5116077;28;20387;-79
2022/04/18 12:28:02;;;;;;;3.97;3.03;;;19.90;64.60;;;;;;5115502;28;20044;-79
2022/04/18 12:30:28;;;;;;;5.57;3.58;;;20.00;64.10;;;;;;5116337;28;20126;-79
2022/04/18 12:32:54;;;;;;;5.37;3.60;;;20.20;62.80;;;;;;5097754;28;20126;-77
2022/04/18 12:35:37;;;;;;;4.93;3.45;;;20.30;63.10;;;;;;5115806;28;20082;-78
2022/04/18 12:38:30;;;;;;;6.45;3.72;;;20.20;62.90;;;;;;5115600;28;20039;-77
2022/04/18 12:40:58;;;;;;;6.30;3.35;;;20.40;63.30;;;;;;5115602;28;20050;-77
2022/04/18 12:43:30;;;;;;;4.97;3.58;;;20.30;62.90;;;;;;5114358;28;20050;-77
2022/04/18 12:46:01;;;;;;;5.07;3.45;;;20.40;63.00;;;;;;5114465;28;20048;-79
2022/04/18 12:48:29;;;;;;;5.07;3.70;;;20.50;62.40;;;;;;5115623;28;20083;-78
2022/04/18 12:50:56;;;;;;;4.90;3.35;;;20.50;60.90;;;;;;5115144;28;20632;-80
2022/04/18 12:53:42;;;;;;;4.80;3.10;;;20.40;62.40;;;;;;5115420;28;20043;-79
2022/04/18 12:56:08;;;;;;;5.38;3.25;;;20.40;61.20;;;;;;5115284;28;20040;-78
2022/04/18 12:58:41;;;;;;;4.00;2.90;;;20.30;61.60;;;;;;5115331;28;20578;-78
2022/04/18 13:01:07;;;;;;;6.05;3.58;;;20.30;62.00;;;;;;5115128;28;20079;-79
2022/04/18 13:03:43;;;;;;;;;;;20.40;62.40;;;;;;5115379;28;20039;-79
2022/04/18 13:06:09;;;;;;;3.95;3.47;;;20.50;61.00;;;;;;5115133;28;19923;-78
2022/04/18 13:08:39;;;;;;;5.83;3.43;;;20.40;60.40;;;;;;5115012;28;20090;-78
2022/04/18 13:11:05;;;;;;;4.18;3.35;;;20.50;61.80;;;;;;5114211;28;20101;-79
2022/04/18 13:13:31;;;;;;;5.30;3.50;;;20.50;61.90;;;;;;5114116;28;20043;-77